Fas Airstrip


Codes: AYFS/
Name: Fas Airstrip
City: Fugari
Country: Papua New Guinea
Elevation: 1219 ft.

Photos at Fas Airstrip


   Photos courtesy of SpottingLog. You can add your own sightings and photos by signing up for a free trial today.



No photos found.

Weather at Fas Airstrip


Time (UTC)DescriptionTempratureWindCloud coverageVisibilityPressureHumidity
21-Jun-2024 12:00Light Rain22°C2 mph, NE99%10000m1012hPa99%
21-Jun-2024 15:00Light Rain22°C2 mph, NE98%10000m1012hPa99%
21-Jun-2024 18:00Light Rain21°C2 mph, NE97%10000m1011hPa98%
21-Jun-2024 21:00Light Rain21°C0 mph, SE100%10000m1012hPa98%
22-Jun-2024 00:00Light Rain26°C2 mph, S94%10000m1013hPa79%
22-Jun-2024 03:00Light Rain26°C0 mph, E74%10000m1010hPa82%
22-Jun-2024 06:00Light Rain26°C2 mph, N85%10000m1009hPa92%
22-Jun-2024 09:00Light Rain22°C2 mph, NE100%10000m1010hPa99%
22-Jun-2024 12:00Light Rain21°C2 mph, NE99%10000m1012hPa99%
22-Jun-2024 15:00Light Rain21°C2 mph, E100%10000m1011hPa99%
22-Jun-2024 18:00Light Rain21°C2 mph, SE100%10000m1011hPa99%
22-Jun-2024 21:00Overcast Clouds21°C2 mph, S100%10000m1012hPa98%
23-Jun-2024 00:00Light Rain25°C2 mph, S100%10000m1012hPa84%
23-Jun-2024 03:00Light Rain25°C2 mph, S97%4069m1010hPa93%
23-Jun-2024 06:00Moderate Rain25°C2 mph, NE99%10000m1008hPa95%
23-Jun-2024 09:00Light Rain22°C2 mph, NE100%10000m1009hPa99%
23-Jun-2024 12:00Light Rain22°C2 mph, NE75%10000m1011hPa100%
23-Jun-2024 15:00Light Rain21°C2 mph, NE92%10000m1010hPa99%
23-Jun-2024 18:00Broken Clouds21°C2 mph, SE56%10000m1009hPa98%
23-Jun-2024 21:00Scattered Clouds21°C2 mph, S27%10000m1010hPa99%
24-Jun-2024 00:00Scattered Clouds26°C2 mph, S41%10000m1011hPa79%
24-Jun-2024 03:00Light Rain28°C2 mph, E64%10000m1008hPa71%
24-Jun-2024 06:00Light Rain28°C2 mph, NE71%10000m1007hPa73%
24-Jun-2024 09:00Light Rain22°C2 mph, NE99%10000m1009hPa97%
24-Jun-2024 12:00Light Rain21°C2 mph, NE96%10000m1010hPa99%
24-Jun-2024 15:00Light Rain21°C2 mph, NE100%10000m1010hPa99%
24-Jun-2024 18:00Light Rain20°C2 mph, E72%10000m1009hPa98%
24-Jun-2024 21:00Overcast Clouds20°C2 mph, S92%10000m1011hPa98%
25-Jun-2024 00:00Overcast Clouds26°C2 mph, S95%10000m1011hPa78%
25-Jun-2024 03:00Light Rain28°C2 mph, S100%10000m1009hPa71%
25-Jun-2024 06:00Light Rain24°C2 mph, NE100%10000m1007hPa95%
25-Jun-2024 09:00Light Rain22°C2 mph, NE100%10000m1009hPa98%
25-Jun-2024 12:00Overcast Clouds22°C2 mph, NE100%10000m1011hPa99%
25-Jun-2024 15:00Overcast Clouds21°C2 mph, NE100%10000m1011hPa99%
25-Jun-2024 18:00Overcast Clouds21°C2 mph, SE99%10000m1010hPa98%
25-Jun-2024 21:00Overcast Clouds20°C2 mph, S89%10000m1012hPa98%
26-Jun-2024 00:00Overcast Clouds27°C2 mph, S93%10000m1012hPa71%
26-Jun-2024 03:00Light Rain30°C2 mph, S60%10000m1009hPa53%
26-Jun-2024 06:00Light Rain26°C2 mph, N73%10000m1007hPa77%
26-Jun-2024 09:00Light Rain23°C2 mph, NE96%10000m1009hPa97%